sensor_id;sensor_type;location;lat;lon;timestamp;P1;durP1;ratioP1;P2;durP2;ratioP2
68866;SDS011;56451;44.804;20.476;2022-10-31T00:02:04;103.97;;;48.53;;
68866;SDS011;56451;44.804;20.476;2022-10-31T00:04:30;100.10;;;46.42;;
68866;SDS011;56451;44.804;20.476;2022-10-31T00:06:56;103.72;;;47.97;;
68866;SDS011;56451;44.804;20.476;2022-10-31T00:09:22;98.70;;;46.67;;
68866;SDS011;56451;44.804;20.476;2022-10-31T00:11:49;94.43;;;45.90;;
68866;SDS011;56451;44.804;20.476;2022-10-31T00:14:14;94.88;;;46.15;;
68866;SDS011;56451;44.804;20.476;2022-10-31T00:16:40;97.50;;;47.75;;
68866;SDS011;56451;44.804;20.476;2022-10-31T00:19:07;110.18;;;48.72;;
68866;SDS011;56451;44.804;20.476;2022-10-31T00:21:33;113.53;;;48.60;;
68866;SDS011;56451;44.804;20.476;2022-10-31T00:24:00;107.07;;;48.35;;
68866;SDS011;56451;44.804;20.476;2022-10-31T00:26:32;97.25;;;48.10;;
68866;SDS011;56451;44.804;20.476;2022-10-31T00:28:58;110.15;;;50.22;;
68866;SDS011;56451;44.804;20.476;2022-10-31T00:31:26;105.95;;;46.95;;
68866;SDS011;56451;44.804;20.476;2022-10-31T00:33:52;95.47;;;45.63;;
68866;SDS011;56451;44.804;20.476;2022-10-31T00:36:19;96.35;;;46.90;;
68866;SDS011;56451;44.804;20.476;2022-10-31T00:38:46;95.68;;;48.40;;
68866;SDS011;56451;44.804;20.476;2022-10-31T00:41:13;96.10;;;45.45;;
68866;SDS011;56451;44.804;20.476;2022-10-31T00:43:40;100.13;;;45.47;;
68866;SDS011;56451;44.804;20.476;2022-10-31T00:46:07;97.90;;;45.40;;
68866;SDS011;56451;44.804;20.476;2022-10-31T00:48:34;95.75;;;46.40;;
68866;SDS011;56451;44.804;20.476;2022-10-31T00:51:00;105.18;;;44.47;;
68866;SDS011;56451;44.804;20.476;2022-10-31T00:53:26;115.60;;;45.55;;
68866;SDS011;56451;44.804;20.476;2022-10-31T00:55:52;104.40;;;48.07;;
68866;SDS011;56451;44.804;20.476;2022-10-31T00:58:18;122.85;;;44.40;;
68866;SDS011;56451;44.804;20.476;2022-10-31T01:00:46;111.97;;;44.97;;
68866;SDS011;56451;44.804;20.476;2022-10-31T01:03:23;159.88;;;46.45;;
68866;SDS011;56451;44.804;20.476;2022-10-31T01:05:55;109.47;;;45.00;;
68866;SDS011;56451;44.804;20.476;2022-10-31T01:08:25;103.05;;;45.42;;
68866;SDS011;56451;44.804;20.476;2022-10-31T01:11:25;112.15;;;45.45;;
68866;SDS011;56451;44.804;20.476;2022-10-31T01:13:45;116.85;;;48.40;;
68866;SDS011;56451;44.804;20.476;2022-10-31T01:16:13;123.50;;;49.40;;
68866;SDS011;56451;44.804;20.476;2022-10-31T01:18:40;142.50;;;49.00;;
68866;SDS011;56451;44.804;20.476;2022-10-31T01:21:08;109.57;;;48.72;;
68866;SDS011;56451;44.804;20.476;2022-10-31T01:23:37;114.00;;;47.30;;
68866;SDS011;56451;44.804;20.476;2022-10-31T01:26:05;114.43;;;48.65;;
68866;SDS011;56451;44.804;20.476;2022-10-31T01:28:35;109.97;;;47.88;;
68866;SDS011;56451;44.804;20.476;2022-10-31T01:31:11;122.57;;;50.40;;
68866;SDS011;56451;44.804;20.476;2022-10-31T01:33:37;112.07;;;51.08;;
68866;SDS011;56451;44.804;20.476;2022-10-31T01:36:20;118.20;;;49.92;;
68866;SDS011;56451;44.804;20.476;2022-10-31T01:38:50;131.82;;;48.83;;
68866;SDS011;56451;44.804;20.476;2022-10-31T01:41:19;139.23;;;49.35;;
68866;SDS011;56451;44.804;20.476;2022-10-31T01:43:54;155.30;;;48.70;;
68866;SDS011;56451;44.804;20.476;2022-10-31T01:46:27;123.07;;;50.88;;
68866;SDS011;56451;44.804;20.476;2022-10-31T01:48:55;116.30;;;51.22;;
68866;SDS011;56451;44.804;20.476;2022-10-31T01:51:26;124.68;;;48.20;;
68866;SDS011;56451;44.804;20.476;2022-10-31T01:53:56;115.18;;;47.67;;
68866;SDS011;56451;44.804;20.476;2022-10-31T01:56:26;105.90;;;47.87;;
68866;SDS011;56451;44.804;20.476;2022-10-31T01:58:53;105.65;;;48.08;;
68866;SDS011;56451;44.804;20.476;2022-10-31T02:01:20;118.90;;;48.50;;
68866;SDS011;56451;44.804;20.476;2022-10-31T02:03:46;110.45;;;48.58;;
68866;SDS011;56451;44.804;20.476;2022-10-31T02:06:19;132.32;;;49.33;;
68866;SDS011;56451;44.804;20.476;2022-10-31T02:08:52;108.63;;;47.60;;
68866;SDS011;56451;44.804;20.476;2022-10-31T02:11:20;104.63;;;46.70;;
68866;SDS011;56451;44.804;20.476;2022-10-31T02:13:46;110.60;;;47.83;;
68866;SDS011;56451;44.804;20.476;2022-10-31T02:16:13;113.38;;;48.08;;
68866;SDS011;56451;44.804;20.476;2022-10-31T02:18:39;101.73;;;47.13;;
68866;SDS011;56451;44.804;20.476;2022-10-31T02:33:00;105.10;;;45.87;;
68866;SDS011;56451;44.804;20.476;2022-10-31T02:44:03;107.00;;;48.03;;
68866;SDS011;56451;44.804;20.476;2022-10-31T02:52:33;113.72;;;50.15;;
68866;SDS011;56451;44.804;20.476;2022-10-31T02:55:12;98.88;;;46.30;;
68866;SDS011;56451;44.804;20.476;2022-10-31T02:57:47;92.57;;;45.25;;
68866;SDS011;56451;44.804;20.476;2022-10-31T03:00:14;97.23;;;45.43;;
68866;SDS011;56451;44.804;20.476;2022-10-31T03:02:52;99.97;;;47.53;;
68866;SDS011;56451;44.804;20.476;2022-10-31T03:05:56;99.00;;;46.50;;
68866;SDS011;56451;44.804;20.476;2022-10-31T03:11:15;86.95;;;44.53;;
68866;SDS011;56451;44.804;20.476;2022-10-31T03:13:46;94.10;;;43.43;;
68866;SDS011;56451;44.804;20.476;2022-10-31T03:16:25;94.82;;;47.15;;
68866;SDS011;56451;44.804;20.476;2022-10-31T03:24:08;90.57;;;45.83;;
68866;SDS011;56451;44.804;20.476;2022-10-31T03:26:37;96.77;;;45.90;;
68866;SDS011;56451;44.804;20.476;2022-10-31T03:29:08;105.32;;;47.33;;
68866;SDS011;56451;44.804;20.476;2022-10-31T03:31:47;92.35;;;45.78;;
68866;SDS011;56451;44.804;20.476;2022-10-31T03:34:17;99.47;;;46.13;;
68866;SDS011;56451;44.804;20.476;2022-10-31T03:36:45;100.93;;;49.08;;
68866;SDS011;56451;44.804;20.476;2022-10-31T03:39:15;104.97;;;49.30;;
68866;SDS011;56451;44.804;20.476;2022-10-31T03:41:45;107.95;;;49.20;;
68866;SDS011;56451;44.804;20.476;2022-10-31T03:44:16;102.32;;;47.63;;
68866;SDS011;56451;44.804;20.476;2022-10-31T03:46:50;101.22;;;46.85;;
68866;SDS011;56451;44.804;20.476;2022-10-31T03:49:16;96.77;;;44.30;;
68866;SDS011;56451;44.804;20.476;2022-10-31T03:54:44;90.15;;;43.17;;
68866;SDS011;56451;44.804;20.476;2022-10-31T03:57:18;88.90;;;43.83;;
68866;SDS011;56451;44.804;20.476;2022-10-31T04:02:33;85.63;;;43.07;;
68866;SDS011;56451;44.804;20.476;2022-10-31T04:05:03;89.78;;;45.10;;
68866;SDS011;56451;44.804;20.476;2022-10-31T04:07:32;94.97;;;44.67;;
68866;SDS011;56451;44.804;20.476;2022-10-31T04:10:07;92.72;;;45.20;;
68866;SDS011;56451;44.804;20.476;2022-10-31T04:12:35;94.32;;;44.97;;
68866;SDS011;56451;44.804;20.476;2022-10-31T04:15:15;99.13;;;45.67;;
68866;SDS011;56451;44.804;20.476;2022-10-31T04:17:42;94.10;;;44.63;;
68866;SDS011;56451;44.804;20.476;2022-10-31T04:20:11;115.38;;;48.47;;
68866;SDS011;56451;44.804;20.476;2022-10-31T04:22:41;101.13;;;45.88;;
68866;SDS011;56451;44.804;20.476;2022-10-31T04:25:07;106.90;;;47.93;;
68866;SDS011;56451;44.804;20.476;2022-10-31T04:27:33;110.93;;;48.03;;
68866;SDS011;56451;44.804;20.476;2022-10-31T04:29:59;112.05;;;48.75;;
68866;SDS011;56451;44.804;20.476;2022-10-31T04:32:25;107.55;;;47.40;;
68866;SDS011;56451;44.804;20.476;2022-10-31T04:34:53;111.93;;;49.43;;
68866;SDS011;56451;44.804;20.476;2022-10-31T04:37:19;116.65;;;48.17;;
68866;SDS011;56451;44.804;20.476;2022-10-31T04:39:46;110.90;;;48.80;;
68866;SDS011;56451;44.804;20.476;2022-10-31T04:42:30;118.10;;;49.03;;
68866;SDS011;56451;44.804;20.476;2022-10-31T04:44:58;119.37;;;49.27;;
68866;SDS011;56451;44.804;20.476;2022-10-31T04:47:23;128.50;;;50.47;;
68866;SDS011;56451;44.804;20.476;2022-10-31T04:49:49;109.68;;;47.28;;
68866;SDS011;56451;44.804;20.476;2022-10-31T04:52:15;125.67;;;48.17;;
68866;SDS011;56451;44.804;20.476;2022-10-31T04:54:42;129.18;;;48.40;;
68866;SDS011;56451;44.804;20.476;2022-10-31T04:57:26;116.50;;;47.85;;
68866;SDS011;56451;44.804;20.476;2022-10-31T04:59:54;112.30;;;49.08;;
68866;SDS011;56451;44.804;20.476;2022-10-31T05:02:22;113.60;;;46.47;;
68866;SDS011;56451;44.804;20.476;2022-10-31T05:04:54;117.30;;;46.73;;
68866;SDS011;56451;44.804;20.476;2022-10-31T05:07:20;121.95;;;48.70;;
68866;SDS011;56451;44.804;20.476;2022-10-31T05:09:46;118.70;;;49.53;;
68866;SDS011;56451;44.804;20.476;2022-10-31T05:12:13;126.47;;;49.75;;
68866;SDS011;56451;44.804;20.476;2022-10-31T05:14:59;134.40;;;48.60;;
68866;SDS011;56451;44.804;20.476;2022-10-31T05:17:47;117.75;;;47.92;;
68866;SDS011;56451;44.804;20.476;2022-10-31T05:20:48;126.60;;;49.03;;
68866;SDS011;56451;44.804;20.476;2022-10-31T05:23:24;111.63;;;47.27;;
68866;SDS011;56451;44.804;20.476;2022-10-31T05:25:50;123.90;;;48.30;;
68866;SDS011;56451;44.804;20.476;2022-10-31T05:28:16;130.18;;;50.80;;
68866;SDS011;56451;44.804;20.476;2022-10-31T05:30:43;113.55;;;47.28;;
68866;SDS011;56451;44.804;20.476;2022-10-31T05:33:13;124.22;;;48.15;;
68866;SDS011;56451;44.804;20.476;2022-10-31T05:36:01;110.33;;;46.03;;
68866;SDS011;56451;44.804;20.476;2022-10-31T05:38:39;109.18;;;46.67;;
68866;SDS011;56451;44.804;20.476;2022-10-31T05:41:31;110.15;;;47.13;;
68866;SDS011;56451;44.804;20.476;2022-10-31T05:44:08;106.13;;;45.45;;
68866;SDS011;56451;44.804;20.476;2022-10-31T05:46:47;110.80;;;45.35;;
68866;SDS011;56451;44.804;20.476;2022-10-31T05:49:31;99.10;;;44.37;;
68866;SDS011;56451;44.804;20.476;2022-10-31T05:51:57;108.88;;;45.90;;
68866;SDS011;56451;44.804;20.476;2022-10-31T05:54:32;100.18;;;45.30;;
68866;SDS011;56451;44.804;20.476;2022-10-31T05:56:58;118.03;;;44.83;;
68866;SDS011;56451;44.804;20.476;2022-10-31T05:59:24;109.80;;;44.27;;
68866;SDS011;56451;44.804;20.476;2022-10-31T06:01:49;111.50;;;47.70;;
68866;SDS011;56451;44.804;20.476;2022-10-31T06:04:29;112.30;;;44.25;;
68866;SDS011;56451;44.804;20.476;2022-10-31T06:06:56;103.07;;;44.57;;
68866;SDS011;56451;44.804;20.476;2022-10-31T06:09:22;102.80;;;44.53;;
68866;SDS011;56451;44.804;20.476;2022-10-31T06:11:47;116.80;;;46.63;;
68866;SDS011;56451;44.804;20.476;2022-10-31T06:14:26;107.33;;;43.67;;
68866;SDS011;56451;44.804;20.476;2022-10-31T06:16:54;109.40;;;45.20;;
68866;SDS011;56451;44.804;20.476;2022-10-31T06:19:40;122.38;;;48.15;;
68866;SDS011;56451;44.804;20.476;2022-10-31T06:22:08;108.32;;;44.45;;
68866;SDS011;56451;44.804;20.476;2022-10-31T06:24:37;110.47;;;46.22;;
68866;SDS011;56451;44.804;20.476;2022-10-31T06:27:17;114.50;;;44.37;;
68866;SDS011;56451;44.804;20.476;2022-10-31T06:29:43;103.45;;;45.90;;
68866;SDS011;56451;44.804;20.476;2022-10-31T06:32:17;104.45;;;45.75;;
68866;SDS011;56451;44.804;20.476;2022-10-31T06:34:44;109.47;;;45.60;;
68866;SDS011;56451;44.804;20.476;2022-10-31T06:37:13;103.67;;;43.87;;
68866;SDS011;56451;44.804;20.476;2022-10-31T06:39:43;104.07;;;46.08;;
68866;SDS011;56451;44.804;20.476;2022-10-31T06:42:10;103.40;;;45.38;;
68866;SDS011;56451;44.804;20.476;2022-10-31T06:44:36;99.18;;;43.80;;
68866;SDS011;56451;44.804;20.476;2022-10-31T06:47:22;107.68;;;45.92;;
68866;SDS011;56451;44.804;20.476;2022-10-31T06:49:59;99.27;;;44.00;;
68866;SDS011;56451;44.804;20.476;2022-10-31T06:52:25;105.05;;;44.80;;
68866;SDS011;56451;44.804;20.476;2022-10-31T06:54:51;98.55;;;45.03;;
68866;SDS011;56451;44.804;20.476;2022-10-31T06:57:19;104.80;;;46.10;;
68866;SDS011;56451;44.804;20.476;2022-10-31T06:59:45;101.23;;;44.93;;
68866;SDS011;56451;44.804;20.476;2022-10-31T07:02:18;112.33;;;46.67;;
68866;SDS011;56451;44.804;20.476;2022-10-31T07:04:43;123.63;;;50.58;;
68866;SDS011;56451;44.804;20.476;2022-10-31T07:07:13;107.45;;;47.75;;
68866;SDS011;56451;44.804;20.476;2022-10-31T07:09:38;105.77;;;47.63;;
68866;SDS011;56451;44.804;20.476;2022-10-31T07:12:06;111.97;;;48.42;;
68866;SDS011;56451;44.804;20.476;2022-10-31T07:14:36;115.63;;;49.22;;
68866;SDS011;56451;44.804;20.476;2022-10-31T07:17:02;125.80;;;52.65;;
68866;SDS011;56451;44.804;20.476;2022-10-31T07:19:32;130.02;;;53.13;;
68866;SDS011;56451;44.804;20.476;2022-10-31T07:21:58;126.57;;;51.57;;
68866;SDS011;56451;44.804;20.476;2022-10-31T07:24:27;128.13;;;51.25;;
68866;SDS011;56451;44.804;20.476;2022-10-31T07:27:36;127.30;;;51.95;;
68866;SDS011;56451;44.804;20.476;2022-10-31T07:30:08;124.00;;;51.67;;
68866;SDS011;56451;44.804;20.476;2022-10-31T07:32:39;124.55;;;53.47;;
68866;SDS011;56451;44.804;20.476;2022-10-31T07:35:07;127.07;;;51.47;;
68866;SDS011;56451;44.804;20.476;2022-10-31T07:37:45;122.50;;;51.90;;
68866;SDS011;56451;44.804;20.476;2022-10-31T07:40:12;126.78;;;54.90;;
68866;SDS011;56451;44.804;20.476;2022-10-31T07:42:42;137.85;;;56.17;;
68866;SDS011;56451;44.804;20.476;2022-10-31T07:45:29;138.55;;;55.53;;
68866;SDS011;56451;44.804;20.476;2022-10-31T07:48:13;139.17;;;55.27;;
68866;SDS011;56451;44.804;20.476;2022-10-31T07:50:58;136.70;;;56.42;;
68866;SDS011;56451;44.804;20.476;2022-10-31T07:53:47;139.95;;;57.28;;
68866;SDS011;56451;44.804;20.476;2022-10-31T07:56:24;131.30;;;56.30;;
68866;SDS011;56451;44.804;20.476;2022-10-31T07:58:51;135.57;;;57.70;;
68866;SDS011;56451;44.804;20.476;2022-10-31T08:01:17;130.43;;;56.87;;
68866;SDS011;56451;44.804;20.476;2022-10-31T08:03:53;137.57;;;56.83;;
68866;SDS011;56451;44.804;20.476;2022-10-31T08:06:38;130.02;;;58.35;;
68866;SDS011;56451;44.804;20.476;2022-10-31T08:09:30;129.50;;;56.95;;
68866;SDS011;56451;44.804;20.476;2022-10-31T08:12:00;160.73;;;64.38;;
68866;SDS011;56451;44.804;20.476;2022-10-31T08:14:28;147.00;;;62.03;;
68866;SDS011;56451;44.804;20.476;2022-10-31T08:16:54;139.80;;;61.22;;
68866;SDS011;56451;44.804;20.476;2022-10-31T08:19:23;162.32;;;62.25;;
68866;SDS011;56451;44.804;20.476;2022-10-31T08:21:52;169.93;;;64.53;;
68866;SDS011;56451;44.804;20.476;2022-10-31T08:24:21;156.18;;;61.47;;
68866;SDS011;56451;44.804;20.476;2022-10-31T08:26:47;164.70;;;61.60;;
68866;SDS011;56451;44.804;20.476;2022-10-31T08:29:13;157.60;;;62.55;;
68866;SDS011;56451;44.804;20.476;2022-10-31T08:31:41;161.45;;;64.20;;
68866;SDS011;56451;44.804;20.476;2022-10-31T08:34:40;171.30;;;61.35;;
68866;SDS011;56451;44.804;20.476;2022-10-31T08:37:41;167.00;;;63.67;;
68866;SDS011;56451;44.804;20.476;2022-10-31T08:40:08;162.97;;;62.43;;
68866;SDS011;56451;44.804;20.476;2022-10-31T08:42:34;177.15;;;66.35;;
68866;SDS011;56451;44.804;20.476;2022-10-31T08:45:01;165.23;;;65.40;;
68866;SDS011;56451;44.804;20.476;2022-10-31T08:47:27;160.52;;;62.80;;
68866;SDS011;56451;44.804;20.476;2022-10-31T08:49:54;153.40;;;63.85;;
68866;SDS011;56451;44.804;20.476;2022-10-31T08:52:22;179.60;;;65.57;;
68866;SDS011;56451;44.804;20.476;2022-10-31T08:54:50;168.60;;;65.13;;
68866;SDS011;56451;44.804;20.476;2022-10-31T08:57:35;173.20;;;65.93;;
68866;SDS011;56451;44.804;20.476;2022-10-31T09:00:02;169.50;;;65.97;;
68866;SDS011;56451;44.804;20.476;2022-10-31T09:02:47;162.20;;;64.43;;
68866;SDS011;56451;44.804;20.476;2022-10-31T09:05:13;170.30;;;66.22;;
68866;SDS011;56451;44.804;20.476;2022-10-31T09:07:39;170.25;;;66.07;;
68866;SDS011;56451;44.804;20.476;2022-10-31T09:10:05;171.17;;;65.60;;
68866;SDS011;56451;44.804;20.476;2022-10-31T09:12:34;170.75;;;65.72;;
68866;SDS011;56451;44.804;20.476;2022-10-31T09:15:00;171.33;;;65.97;;
68866;SDS011;56451;44.804;20.476;2022-10-31T09:17:47;177.17;;;66.27;;
68866;SDS011;56451;44.804;20.476;2022-10-31T09:20:30;154.35;;;63.67;;
68866;SDS011;56451;44.804;20.476;2022-10-31T09:22:58;165.63;;;66.03;;
68866;SDS011;56451;44.804;20.476;2022-10-31T09:25:26;173.18;;;65.05;;
68866;SDS011;56451;44.804;20.476;2022-10-31T09:28:13;183.10;;;69.57;;
68866;SDS011;56451;44.804;20.476;2022-10-31T09:30:42;155.40;;;63.83;;
68866;SDS011;56451;44.804;20.476;2022-10-31T09:33:17;166.45;;;65.28;;
68866;SDS011;56451;44.804;20.476;2022-10-31T09:35:50;170.30;;;67.13;;
68866;SDS011;56451;44.804;20.476;2022-10-31T09:38:17;167.07;;;64.53;;
68866;SDS011;56451;44.804;20.476;2022-10-31T09:40:49;163.77;;;63.00;;
68866;SDS011;56451;44.804;20.476;2022-10-31T09:44:03;165.25;;;65.40;;
68866;SDS011;56451;44.804;20.476;2022-10-31T09:51:33;173.50;;;65.93;;
68866;SDS011;56451;44.804;20.476;2022-10-31T09:54:25;169.37;;;65.10;;
68866;SDS011;56451;44.804;20.476;2022-10-31T09:56:58;169.40;;;65.95;;
68866;SDS011;56451;44.804;20.476;2022-10-31T09:59:34;165.82;;;65.15;;
68866;SDS011;56451;44.804;20.476;2022-10-31T10:25:01;157.20;;;63.88;;
68866;SDS011;56451;44.804;20.476;2022-10-31T10:30:20;155.10;;;66.53;;
68866;SDS011;56451;44.804;20.476;2022-10-31T10:32:52;148.13;;;65.33;;
68866;SDS011;56451;44.804;20.476;2022-10-31T10:35:23;150.15;;;63.92;;
68866;SDS011;56451;44.804;20.476;2022-10-31T10:37:55;161.82;;;64.40;;
68866;SDS011;56451;44.804;20.476;2022-10-31T10:40:27;148.43;;;63.80;;
68866;SDS011;56451;44.804;20.476;2022-10-31T10:59:53;152.23;;;61.57;;
68866;SDS011;56451;44.804;20.476;2022-10-31T11:02:21;152.43;;;62.10;;
68866;SDS011;56451;44.804;20.476;2022-10-31T11:04:50;144.60;;;62.92;;
68866;SDS011;56451;44.804;20.476;2022-10-31T11:07:18;142.02;;;61.53;;
68866;SDS011;56451;44.804;20.476;2022-10-31T11:09:44;137.65;;;61.78;;
68866;SDS011;56451;44.804;20.476;2022-10-31T11:12:21;141.03;;;62.00;;
68866;SDS011;56451;44.804;20.476;2022-10-31T11:14:51;144.18;;;61.85;;
68866;SDS011;56451;44.804;20.476;2022-10-31T11:17:37;139.25;;;60.53;;
68866;SDS011;56451;44.804;20.476;2022-10-31T11:22:37;133.65;;;59.13;;
68866;SDS011;56451;44.804;20.476;2022-10-31T11:28:09;138.75;;;60.58;;
68866;SDS011;56451;44.804;20.476;2022-10-31T11:30:46;132.05;;;60.22;;
68866;SDS011;56451;44.804;20.476;2022-10-31T11:33:16;136.35;;;61.10;;
68866;SDS011;56451;44.804;20.476;2022-10-31T11:35:46;137.13;;;60.25;;
68866;SDS011;56451;44.804;20.476;2022-10-31T11:38:15;141.10;;;59.03;;
68866;SDS011;56451;44.804;20.476;2022-10-31T11:43:21;126.28;;;59.83;;
68866;SDS011;56451;44.804;20.476;2022-10-31T11:45:47;137.10;;;62.90;;
68866;SDS011;56451;44.804;20.476;2022-10-31T11:48:17;134.45;;;61.42;;
68866;SDS011;56451;44.804;20.476;2022-10-31T11:50:55;130.50;;;59.43;;
68866;SDS011;56451;44.804;20.476;2022-10-31T11:53:28;128.45;;;57.20;;
68866;SDS011;56451;44.804;20.476;2022-10-31T11:56:15;131.90;;;59.67;;
68866;SDS011;56451;44.804;20.476;2022-10-31T11:58:42;136.82;;;60.10;;
68866;SDS011;56451;44.804;20.476;2022-10-31T12:01:29;130.93;;;59.10;;
68866;SDS011;56451;44.804;20.476;2022-10-31T12:04:15;127.93;;;59.63;;
68866;SDS011;56451;44.804;20.476;2022-10-31T12:06:43;131.07;;;59.75;;
68866;SDS011;56451;44.804;20.476;2022-10-31T12:17:18;135.10;;;61.20;;
68866;SDS011;56451;44.804;20.476;2022-10-31T12:30:22;135.77;;;61.50;;
68866;SDS011;56451;44.804;20.476;2022-10-31T12:49:35;122.22;;;59.10;;
68866;SDS011;56451;44.804;20.476;2022-10-31T12:54:58;110.80;;;56.70;;
68866;SDS011;56451;44.804;20.476;2022-10-31T12:58:24;110.03;;;54.83;;
68866;SDS011;56451;44.804;20.476;2022-10-31T13:00:27;113.85;;;54.50;;
68866;SDS011;56451;44.804;20.476;2022-10-31T13:03:09;112.93;;;54.88;;
68866;SDS011;56451;44.804;20.476;2022-10-31T13:05:58;116.68;;;57.88;;
68866;SDS011;56451;44.804;20.476;2022-10-31T13:08:36;112.97;;;58.92;;
68866;SDS011;56451;44.804;20.476;2022-10-31T13:16:53;111.93;;;55.42;;
68866;SDS011;56451;44.804;20.476;2022-10-31T13:25:10;101.60;;;52.60;;
68866;SDS011;56451;44.804;20.476;2022-10-31T13:27:41;107.10;;;53.58;;
68866;SDS011;56451;44.804;20.476;2022-10-31T13:32:39;115.13;;;54.28;;
68866;SDS011;56451;44.804;20.476;2022-10-31T13:36:06;106.00;;;53.00;;
68866;SDS011;56451;44.804;20.476;2022-10-31T13:38:33;105.70;;;54.58;;
68866;SDS011;56451;44.804;20.476;2022-10-31T13:44:26;105.95;;;54.35;;
68866;SDS011;56451;44.804;20.476;2022-10-31T13:46:54;108.82;;;54.72;;
68866;SDS011;56451;44.804;20.476;2022-10-31T13:54:34;109.43;;;54.88;;
68866;SDS011;56451;44.804;20.476;2022-10-31T13:57:05;116.03;;;55.80;;
68866;SDS011;56451;44.804;20.476;2022-10-31T13:59:33;114.40;;;53.30;;
68866;SDS011;56451;44.804;20.476;2022-10-31T14:02:12;106.90;;;54.23;;
68866;SDS011;56451;44.804;20.476;2022-10-31T14:07:21;109.38;;;56.38;;
68866;SDS011;56451;44.804;20.476;2022-10-31T14:10:05;106.78;;;53.25;;
68866;SDS011;56451;44.804;20.476;2022-10-31T14:12:45;109.43;;;54.78;;
68866;SDS011;56451;44.804;20.476;2022-10-31T14:15:20;112.33;;;55.20;;
68866;SDS011;56451;44.804;20.476;2022-10-31T14:20:45;110.20;;;56.08;;
68866;SDS011;56451;44.804;20.476;2022-10-31T14:28:52;112.83;;;55.23;;
68866;SDS011;56451;44.804;20.476;2022-10-31T14:31:36;112.20;;;56.13;;
68866;SDS011;56451;44.804;20.476;2022-10-31T14:34:20;115.50;;;55.28;;
68866;SDS011;56451;44.804;20.476;2022-10-31T14:48:21;117.05;;;57.25;;
68866;SDS011;56451;44.804;20.476;2022-10-31T14:51:02;121.18;;;57.95;;
68866;SDS011;56451;44.804;20.476;2022-10-31T14:53:48;127.07;;;59.33;;
68866;SDS011;56451;44.804;20.476;2022-10-31T14:56:33;121.93;;;58.83;;
68866;SDS011;56451;44.804;20.476;2022-10-31T14:59:02;124.07;;;59.47;;
68866;SDS011;56451;44.804;20.476;2022-10-31T15:01:32;116.88;;;59.10;;
68866;SDS011;56451;44.804;20.476;2022-10-31T15:04:04;127.03;;;59.85;;
68866;SDS011;56451;44.804;20.476;2022-10-31T15:06:50;129.48;;;60.40;;
68866;SDS011;56451;44.804;20.476;2022-10-31T15:09:29;119.67;;;60.87;;
68866;SDS011;56451;44.804;20.476;2022-10-31T15:12:00;117.30;;;59.72;;
68866;SDS011;56451;44.804;20.476;2022-10-31T15:14:39;121.15;;;59.75;;
68866;SDS011;56451;44.804;20.476;2022-10-31T15:17:05;119.00;;;60.10;;
68866;SDS011;56451;44.804;20.476;2022-10-31T15:19:32;129.20;;;62.60;;
68866;SDS011;56451;44.804;20.476;2022-10-31T15:21:59;121.40;;;59.90;;
68866;SDS011;56451;44.804;20.476;2022-10-31T15:24:36;122.43;;;61.40;;
68866;SDS011;56451;44.804;20.476;2022-10-31T15:27:04;121.47;;;59.87;;
68866;SDS011;56451;44.804;20.476;2022-10-31T15:29:30;126.10;;;61.55;;
68866;SDS011;56451;44.804;20.476;2022-10-31T15:31:57;125.97;;;61.92;;
68866;SDS011;56451;44.804;20.476;2022-10-31T15:37:03;124.85;;;63.25;;
68866;SDS011;56451;44.804;20.476;2022-10-31T15:39:29;124.87;;;63.13;;
68866;SDS011;56451;44.804;20.476;2022-10-31T15:41:56;123.50;;;61.47;;
68866;SDS011;56451;44.804;20.476;2022-10-31T15:44:25;128.48;;;63.50;;
68866;SDS011;56451;44.804;20.476;2022-10-31T15:46:55;132.45;;;62.22;;
68866;SDS011;56451;44.804;20.476;2022-10-31T15:49:41;127.38;;;63.45;;
68866;SDS011;56451;44.804;20.476;2022-10-31T15:52:18;125.20;;;62.77;;
68866;SDS011;56451;44.804;20.476;2022-10-31T15:55:00;134.38;;;62.28;;
68866;SDS011;56451;44.804;20.476;2022-10-31T15:57:28;131.90;;;62.00;;
68866;SDS011;56451;44.804;20.476;2022-10-31T15:59:55;127.93;;;59.05;;
68866;SDS011;56451;44.804;20.476;2022-10-31T16:02:23;129.88;;;61.38;;
68866;SDS011;56451;44.804;20.476;2022-10-31T16:04:55;123.00;;;59.83;;
68866;SDS011;56451;44.804;20.476;2022-10-31T16:07:23;126.22;;;60.53;;
68866;SDS011;56451;44.804;20.476;2022-10-31T16:09:54;127.45;;;60.00;;
68866;SDS011;56451;44.804;20.476;2022-10-31T16:12:21;119.10;;;59.45;;
68866;SDS011;56451;44.804;20.476;2022-10-31T16:14:49;121.95;;;61.63;;
68866;SDS011;56451;44.804;20.476;2022-10-31T16:17:17;122.60;;;59.73;;
68866;SDS011;56451;44.804;20.476;2022-10-31T16:22:27;124.40;;;61.13;;
68866;SDS011;56451;44.804;20.476;2022-10-31T16:27:32;120.13;;;59.85;;
68866;SDS011;56451;44.804;20.476;2022-10-31T16:30:00;119.33;;;57.07;;
68866;SDS011;56451;44.804;20.476;2022-10-31T16:32:30;121.10;;;59.50;;
68866;SDS011;56451;44.804;20.476;2022-10-31T16:37:39;118.93;;;59.70;;
68866;SDS011;56451;44.804;20.476;2022-10-31T16:40:06;125.53;;;58.95;;
68866;SDS011;56451;44.804;20.476;2022-10-31T16:42:33;119.93;;;57.83;;
68866;SDS011;56451;44.804;20.476;2022-10-31T16:44:59;125.63;;;59.88;;
68866;SDS011;56451;44.804;20.476;2022-10-31T16:47:25;117.40;;;57.38;;
68866;SDS011;56451;44.804;20.476;2022-10-31T16:49:51;120.60;;;59.90;;
68866;SDS011;56451;44.804;20.476;2022-10-31T16:52:17;118.50;;;57.00;;
68866;SDS011;56451;44.804;20.476;2022-10-31T16:54:43;114.05;;;56.22;;
68866;SDS011;56451;44.804;20.476;2022-10-31T16:57:20;114.05;;;56.55;;
68866;SDS011;56451;44.804;20.476;2022-10-31T16:59:52;112.07;;;54.60;;
68866;SDS011;56451;44.804;20.476;2022-10-31T17:02:21;113.53;;;56.55;;
68866;SDS011;56451;44.804;20.476;2022-10-31T17:04:47;109.15;;;54.85;;
68866;SDS011;56451;44.804;20.476;2022-10-31T17:07:13;108.32;;;52.75;;
68866;SDS011;56451;44.804;20.476;2022-10-31T17:09:39;99.83;;;49.70;;
68866;SDS011;56451;44.804;20.476;2022-10-31T17:12:05;89.15;;;47.83;;
68866;SDS011;56451;44.804;20.476;2022-10-31T17:14:37;96.38;;;46.67;;
68866;SDS011;56451;44.804;20.476;2022-10-31T17:17:03;96.63;;;48.07;;
68866;SDS011;56451;44.804;20.476;2022-10-31T17:19:28;91.57;;;46.35;;
68866;SDS011;56451;44.804;20.476;2022-10-31T17:21:54;93.47;;;47.97;;
68866;SDS011;56451;44.804;20.476;2022-10-31T17:24:20;91.93;;;46.05;;
68866;SDS011;56451;44.804;20.476;2022-10-31T17:26:46;88.65;;;45.75;;
68866;SDS011;56451;44.804;20.476;2022-10-31T17:29:12;91.80;;;45.75;;
68866;SDS011;56451;44.804;20.476;2022-10-31T17:31:38;85.60;;;43.97;;
68866;SDS011;56451;44.804;20.476;2022-10-31T17:34:04;92.90;;;45.80;;
68866;SDS011;56451;44.804;20.476;2022-10-31T17:36:31;78.32;;;43.30;;